Jago, Mississippi
Current Conditions -  °F | °C
As of 8:54 AM on Saturday 25 Oct 2014 (Local Time) from KMEM Reporting Station
Few Clouds Few Clouds  
Wind Chill: 18°   Ceiling: Unl
Heat Index: 18°   Visibility: 10mi
Dew Point: 13°   Wind: 6mph
Humidity: 75%   Direction: 240°WSW
Pressure: 30.11"   Gusts: NA
Location:  34.9498°N, 90.0305°W
Report Text: KMEM 251354Z 24005KT 10SM FEW250 18/13 A3011 RMK AO2 SLP192 T01780133 $
Loading
Personal Weather Stations






























Interactive Weather Map
Tropical Storm Tracking
New forecast layout! Learn more

10-Day Weather Forecast

Advertisements
Track Severe Weather on mobile